sensor_id;sensor_type;location;lat;lon;timestamp;P1;durP1;ratioP1;P2;durP2;ratioP2
4563;SDS011;2294;51.818;8.484;2022-08-19T00:01:14;10.33;;;6.73;;
4563;SDS011;2294;51.818;8.484;2022-08-19T00:03:42;11.97;;;7.53;;
4563;SDS011;2294;51.818;8.484;2022-08-19T00:06:10;10.43;;;6.87;;
4563;SDS011;2294;51.818;8.484;2022-08-19T00:08:37;9.50;;;6.60;;
4563;SDS011;2294;51.818;8.484;2022-08-19T00:11:04;9.30;;;7.20;;
4563;SDS011;2294;51.818;8.484;2022-08-19T00:13:32;12.93;;;7.03;;
4563;SDS011;2294;51.818;8.484;2022-08-19T00:15:59;12.13;;;7.67;;
4563;SDS011;2294;51.818;8.484;2022-08-19T00:18:26;10.40;;;7.10;;
4563;SDS011;2294;51.818;8.484;2022-08-19T00:20:53;11.03;;;8.10;;
4563;SDS011;2294;51.818;8.484;2022-08-19T00:23:22;10.50;;;6.70;;
4563;SDS011;2294;51.818;8.484;2022-08-19T00:25:48;9.67;;;6.60;;
4563;SDS011;2294;51.818;8.484;2022-08-19T00:28:16;9.63;;;6.00;;
4563;SDS011;2294;51.818;8.484;2022-08-19T00:30:43;14.03;;;6.70;;
4563;SDS011;2294;51.818;8.484;2022-08-19T00:33:10;9.37;;;6.67;;
4563;SDS011;2294;51.818;8.484;2022-08-19T00:35:37;10.47;;;7.20;;
4563;SDS011;2294;51.818;8.484;2022-08-19T00:38:04;13.30;;;7.30;;
4563;SDS011;2294;51.818;8.484;2022-08-19T00:40:33;17.73;;;7.30;;
4563;SDS011;2294;51.818;8.484;2022-08-19T00:43:00;14.30;;;8.20;;
4563;SDS011;2294;51.818;8.484;2022-08-19T00:45:27;14.47;;;8.10;;
4563;SDS011;2294;51.818;8.484;2022-08-19T00:47:56;14.87;;;8.57;;
4563;SDS011;2294;51.818;8.484;2022-08-19T00:50:23;14.50;;;8.00;;
4563;SDS011;2294;51.818;8.484;2022-08-19T00:52:50;11.50;;;8.10;;
4563;SDS011;2294;51.818;8.484;2022-08-19T00:55:22;15.97;;;8.43;;
4563;SDS011;2294;51.818;8.484;2022-08-19T00:57:56;14.03;;;8.70;;
4563;SDS011;2294;51.818;8.484;2022-08-19T01:00:27;11.00;;;7.40;;
4563;SDS011;2294;51.818;8.484;2022-08-19T01:02:54;18.37;;;8.77;;
4563;SDS011;2294;51.818;8.484;2022-08-19T01:05:23;18.90;;;8.70;;
4563;SDS011;2294;51.818;8.484;2022-08-19T01:07:52;11.70;;;7.97;;
4563;SDS011;2294;51.818;8.484;2022-08-19T01:10:21;10.73;;;8.00;;
4563;SDS011;2294;51.818;8.484;2022-08-19T01:12:51;14.17;;;8.10;;
4563;SDS011;2294;51.818;8.484;2022-08-19T01:15:22;15.23;;;10.20;;
4563;SDS011;2294;51.818;8.484;2022-08-19T01:17:52;11.07;;;8.00;;
4563;SDS011;2294;51.818;8.484;2022-08-19T01:20:22;13.40;;;9.37;;
4563;SDS011;2294;51.818;8.484;2022-08-19T01:22:52;21.73;;;10.53;;
4563;SDS011;2294;51.818;8.484;2022-08-19T01:25:21;19.97;;;10.90;;
4563;SDS011;2294;51.818;8.484;2022-08-19T01:27:52;21.27;;;11.20;;
4563;SDS011;2294;51.818;8.484;2022-08-19T01:30:20;16.57;;;10.30;;
4563;SDS011;2294;51.818;8.484;2022-08-19T01:32:49;14.93;;;10.37;;
4563;SDS011;2294;51.818;8.484;2022-08-19T01:35:17;17.77;;;10.97;;
4563;SDS011;2294;51.818;8.484;2022-08-19T01:37:46;16.20;;;11.27;;
4563;SDS011;2294;51.818;8.484;2022-08-19T01:40:17;13.50;;;9.60;;
4563;SDS011;2294;51.818;8.484;2022-08-19T01:42:45;13.97;;;11.63;;
4563;SDS011;2294;51.818;8.484;2022-08-19T01:45:12;15.83;;;10.83;;
4563;SDS011;2294;51.818;8.484;2022-08-19T01:47:39;20.20;;;10.30;;
4563;SDS011;2294;51.818;8.484;2022-08-19T01:50:08;16.90;;;10.60;;
4563;SDS011;2294;51.818;8.484;2022-08-19T01:52:36;15.30;;;10.07;;
4563;SDS011;2294;51.818;8.484;2022-08-19T01:55:03;25.13;;;10.87;;
4563;SDS011;2294;51.818;8.484;2022-08-19T01:57:33;13.20;;;8.60;;
4563;SDS011;2294;51.818;8.484;2022-08-19T02:00:00;15.30;;;10.57;;
4563;SDS011;2294;51.818;8.484;2022-08-19T02:02:30;13.40;;;9.73;;
4563;SDS011;2294;51.818;8.484;2022-08-19T02:04:58;15.37;;;10.17;;
4563;SDS011;2294;51.818;8.484;2022-08-19T02:07:25;18.50;;;10.70;;
4563;SDS011;2294;51.818;8.484;2022-08-19T02:09:53;15.63;;;10.20;;
4563;SDS011;2294;51.818;8.484;2022-08-19T02:12:21;16.67;;;11.67;;
4563;SDS011;2294;51.818;8.484;2022-08-19T02:14:49;15.93;;;10.13;;
4563;SDS011;2294;51.818;8.484;2022-08-19T02:17:16;18.97;;;10.20;;
4563;SDS011;2294;51.818;8.484;2022-08-19T02:19:43;13.67;;;11.17;;
4563;SDS011;2294;51.818;8.484;2022-08-19T02:22:10;13.30;;;11.13;;
4563;SDS011;2294;51.818;8.484;2022-08-19T02:24:37;16.23;;;11.30;;
4563;SDS011;2294;51.818;8.484;2022-08-19T02:27:04;22.87;;;13.17;;
4563;SDS011;2294;51.818;8.484;2022-08-19T02:29:31;14.87;;;12.27;;
4563;SDS011;2294;51.818;8.484;2022-08-19T02:32:00;17.40;;;11.50;;
4563;SDS011;2294;51.818;8.484;2022-08-19T02:34:27;18.80;;;12.23;;
4563;SDS011;2294;51.818;8.484;2022-08-19T02:36:54;16.97;;;12.37;;
4563;SDS011;2294;51.818;8.484;2022-08-19T02:39:21;16.53;;;12.33;;
4563;SDS011;2294;51.818;8.484;2022-08-19T02:41:46;23.80;;;12.63;;
4563;SDS011;2294;51.818;8.484;2022-08-19T02:44:13;19.57;;;13.37;;
4563;SDS011;2294;51.818;8.484;2022-08-19T02:46:41;15.50;;;12.43;;
4563;SDS011;2294;51.818;8.484;2022-08-19T02:49:11;16.53;;;12.33;;
4563;SDS011;2294;51.818;8.484;2022-08-19T02:51:40;18.47;;;12.63;;
4563;SDS011;2294;51.818;8.484;2022-08-19T02:54:10;16.17;;;10.47;;
4563;SDS011;2294;51.818;8.484;2022-08-19T02:56:39;20.63;;;12.43;;
4563;SDS011;2294;51.818;8.484;2022-08-19T02:59:07;17.10;;;11.27;;
4563;SDS011;2294;51.818;8.484;2022-08-19T03:01:36;16.70;;;11.10;;
4563;SDS011;2294;51.818;8.484;2022-08-19T03:04:05;19.27;;;11.40;;
4563;SDS011;2294;51.818;8.484;2022-08-19T03:06:37;17.90;;;13.17;;
4563;SDS011;2294;51.818;8.484;2022-08-19T03:09:04;21.90;;;12.07;;
4563;SDS011;2294;51.818;8.484;2022-08-19T03:11:32;14.63;;;12.27;;
4563;SDS011;2294;51.818;8.484;2022-08-19T03:13:59;18.40;;;12.87;;
4563;SDS011;2294;51.818;8.484;2022-08-19T03:16:28;22.53;;;13.33;;
4563;SDS011;2294;51.818;8.484;2022-08-19T03:18:56;19.03;;;12.07;;
4563;SDS011;2294;51.818;8.484;2022-08-19T03:21:28;15.00;;;11.60;;
4563;SDS011;2294;51.818;8.484;2022-08-19T03:23:59;16.77;;;10.97;;
4563;SDS011;2294;51.818;8.484;2022-08-19T03:26:27;23.53;;;12.10;;
4563;SDS011;2294;51.818;8.484;2022-08-19T03:28:55;14.67;;;11.30;;
4563;SDS011;2294;51.818;8.484;2022-08-19T03:31:25;19.10;;;11.57;;
4563;SDS011;2294;51.818;8.484;2022-08-19T03:33:53;15.40;;;11.30;;
4563;SDS011;2294;51.818;8.484;2022-08-19T03:36:21;21.37;;;11.67;;
4563;SDS011;2294;51.818;8.484;2022-08-19T03:38:51;16.30;;;12.37;;
4563;SDS011;2294;51.818;8.484;2022-08-19T03:41:22;17.53;;;12.30;;
4563;SDS011;2294;51.818;8.484;2022-08-19T03:43:51;25.83;;;11.60;;
4563;SDS011;2294;51.818;8.484;2022-08-19T03:46:19;17.93;;;12.33;;
4563;SDS011;2294;51.818;8.484;2022-08-19T03:48:50;21.43;;;11.63;;
4563;SDS011;2294;51.818;8.484;2022-08-19T03:51:19;15.07;;;11.10;;
4563;SDS011;2294;51.818;8.484;2022-08-19T03:53:48;14.97;;;11.00;;
4563;SDS011;2294;51.818;8.484;2022-08-19T03:56:15;15.70;;;11.80;;
4563;SDS011;2294;51.818;8.484;2022-08-19T03:58:44;14.67;;;11.90;;
4563;SDS011;2294;51.818;8.484;2022-08-19T04:01:12;18.70;;;12.90;;
4563;SDS011;2294;51.818;8.484;2022-08-19T04:03:42;21.40;;;11.50;;
4563;SDS011;2294;51.818;8.484;2022-08-19T04:06:10;18.10;;;12.93;;
4563;SDS011;2294;51.818;8.484;2022-08-19T04:08:39;15.53;;;11.00;;
4563;SDS011;2294;51.818;8.484;2022-08-19T04:11:07;16.87;;;12.20;;
4563;SDS011;2294;51.818;8.484;2022-08-19T04:13:34;27.77;;;13.87;;
4563;SDS011;2294;51.818;8.484;2022-08-19T04:16:03;26.03;;;13.50;;
4563;SDS011;2294;51.818;8.484;2022-08-19T04:18:30;21.50;;;14.50;;
4563;SDS011;2294;51.818;8.484;2022-08-19T04:20:57;27.87;;;16.80;;
4563;SDS011;2294;51.818;8.484;2022-08-19T04:23:26;22.37;;;14.20;;
4563;SDS011;2294;51.818;8.484;2022-08-19T04:25:53;26.40;;;13.93;;
4563;SDS011;2294;51.818;8.484;2022-08-19T04:28:21;24.17;;;15.63;;
4563;SDS011;2294;51.818;8.484;2022-08-19T04:30:50;24.27;;;16.10;;
4563;SDS011;2294;51.818;8.484;2022-08-19T04:33:21;32.67;;;16.00;;
4563;SDS011;2294;51.818;8.484;2022-08-19T04:35:50;25.73;;;16.10;;
4563;SDS011;2294;51.818;8.484;2022-08-19T04:38:19;21.67;;;15.43;;
4563;SDS011;2294;51.818;8.484;2022-08-19T04:40:48;27.00;;;16.40;;
4563;SDS011;2294;51.818;8.484;2022-08-19T04:43:34;23.20;;;16.20;;
4563;SDS011;2294;51.818;8.484;2022-08-19T04:46:04;38.17;;;17.40;;
4563;SDS011;2294;51.818;8.484;2022-08-19T04:48:33;29.40;;;13.90;;
4563;SDS011;2294;51.818;8.484;2022-08-19T04:51:00;22.87;;;14.63;;
4563;SDS011;2294;51.818;8.484;2022-08-19T04:53:33;24.80;;;17.30;;
4563;SDS011;2294;51.818;8.484;2022-08-19T04:56:03;20.40;;;14.80;;
4563;SDS011;2294;51.818;8.484;2022-08-19T04:58:33;29.70;;;16.53;;
4563;SDS011;2294;51.818;8.484;2022-08-19T05:01:00;23.70;;;16.13;;
4563;SDS011;2294;51.818;8.484;2022-08-19T05:03:27;22.63;;;15.27;;
4563;SDS011;2294;51.818;8.484;2022-08-19T05:05:59;27.17;;;16.90;;
4563;SDS011;2294;51.818;8.484;2022-08-19T05:08:32;25.33;;;16.90;;
4563;SDS011;2294;51.818;8.484;2022-08-19T05:11:01;32.13;;;15.97;;
4563;SDS011;2294;51.818;8.484;2022-08-19T05:13:32;32.10;;;17.13;;
4563;SDS011;2294;51.818;8.484;2022-08-19T05:15:59;28.53;;;16.20;;
4563;SDS011;2294;51.818;8.484;2022-08-19T05:18:26;28.70;;;16.20;;
4563;SDS011;2294;51.818;8.484;2022-08-19T05:21:13;24.40;;;15.83;;
4563;SDS011;2294;51.818;8.484;2022-08-19T05:23:59;37.80;;;18.60;;
4563;SDS011;2294;51.818;8.484;2022-08-19T05:26:27;29.60;;;19.27;;
4563;SDS011;2294;51.818;8.484;2022-08-19T05:28:54;27.03;;;17.90;;
4563;SDS011;2294;51.818;8.484;2022-08-19T05:31:21;35.23;;;17.70;;
4563;SDS011;2294;51.818;8.484;2022-08-19T05:33:48;34.00;;;20.00;;
4563;SDS011;2294;51.818;8.484;2022-08-19T05:36:17;29.20;;;20.20;;
4563;SDS011;2294;51.818;8.484;2022-08-19T05:38:44;38.03;;;20.53;;
4563;SDS011;2294;51.818;8.484;2022-08-19T05:41:12;37.80;;;20.50;;
4563;SDS011;2294;51.818;8.484;2022-08-19T05:43:42;36.83;;;20.33;;
4563;SDS011;2294;51.818;8.484;2022-08-19T05:46:15;36.27;;;21.07;;
4563;SDS011;2294;51.818;8.484;2022-08-19T05:48:43;43.63;;;20.60;;
4563;SDS011;2294;51.818;8.484;2022-08-19T05:51:10;30.23;;;21.17;;
4563;SDS011;2294;51.818;8.484;2022-08-19T05:53:38;29.43;;;21.97;;
4563;SDS011;2294;51.818;8.484;2022-08-19T05:56:06;34.60;;;21.10;;
4563;SDS011;2294;51.818;8.484;2022-08-19T05:58:34;36.20;;;21.20;;
4563;SDS011;2294;51.818;8.484;2022-08-19T06:01:02;31.23;;;20.30;;
4563;SDS011;2294;51.818;8.484;2022-08-19T06:03:31;35.63;;;21.80;;
4563;SDS011;2294;51.818;8.484;2022-08-19T06:05:59;31.73;;;19.03;;
4563;SDS011;2294;51.818;8.484;2022-08-19T06:08:27;28.97;;;20.40;;
4563;SDS011;2294;51.818;8.484;2022-08-19T06:10:56;30.87;;;20.57;;
4563;SDS011;2294;51.818;8.484;2022-08-19T06:13:23;31.57;;;21.63;;
4563;SDS011;2294;51.818;8.484;2022-08-19T06:15:50;45.47;;;20.77;;
4563;SDS011;2294;51.818;8.484;2022-08-19T06:18:17;28.97;;;19.53;;
4563;SDS011;2294;51.818;8.484;2022-08-19T06:20:44;28.30;;;17.70;;
4563;SDS011;2294;51.818;8.484;2022-08-19T06:23:11;41.83;;;20.33;;
4563;SDS011;2294;51.818;8.484;2022-08-19T06:25:38;27.93;;;19.70;;
4563;SDS011;2294;51.818;8.484;2022-08-19T06:28:07;37.23;;;20.43;;
4563;SDS011;2294;51.818;8.484;2022-08-19T06:30:35;29.53;;;18.33;;
4563;SDS011;2294;51.818;8.484;2022-08-19T06:33:02;31.07;;;20.30;;
4563;SDS011;2294;51.818;8.484;2022-08-19T06:35:29;32.90;;;20.00;;
4563;SDS011;2294;51.818;8.484;2022-08-19T06:37:57;42.47;;;20.37;;
4563;SDS011;2294;51.818;8.484;2022-08-19T06:40:24;33.10;;;19.73;;
4563;SDS011;2294;51.818;8.484;2022-08-19T06:42:52;36.10;;;18.97;;
4563;SDS011;2294;51.818;8.484;2022-08-19T06:45:22;32.37;;;19.93;;
4563;SDS011;2294;51.818;8.484;2022-08-19T06:47:50;38.20;;;18.70;;
4563;SDS011;2294;51.818;8.484;2022-08-19T06:50:20;51.17;;;19.47;;
4563;SDS011;2294;51.818;8.484;2022-08-19T06:52:47;28.83;;;18.50;;
4563;SDS011;2294;51.818;8.484;2022-08-19T06:55:15;33.10;;;19.33;;
4563;SDS011;2294;51.818;8.484;2022-08-19T06:57:42;27.33;;;17.70;;
4563;SDS011;2294;51.818;8.484;2022-08-19T07:00:11;34.23;;;19.03;;
4563;SDS011;2294;51.818;8.484;2022-08-19T07:02:40;31.80;;;18.47;;
4563;SDS011;2294;51.818;8.484;2022-08-19T07:05:07;28.67;;;17.27;;
4563;SDS011;2294;51.818;8.484;2022-08-19T07:07:35;28.53;;;17.73;;
4563;SDS011;2294;51.818;8.484;2022-08-19T07:10:02;32.30;;;18.37;;
4563;SDS011;2294;51.818;8.484;2022-08-19T07:12:31;28.07;;;18.57;;
4563;SDS011;2294;51.818;8.484;2022-08-19T07:14:59;28.93;;;17.80;;
4563;SDS011;2294;51.818;8.484;2022-08-19T07:17:26;28.30;;;17.33;;
4563;SDS011;2294;51.818;8.484;2022-08-19T07:19:55;34.40;;;17.67;;
4563;SDS011;2294;51.818;8.484;2022-08-19T07:22:22;25.47;;;17.50;;
4563;SDS011;2294;51.818;8.484;2022-08-19T07:24:49;26.50;;;17.37;;
4563;SDS011;2294;51.818;8.484;2022-08-19T07:27:15;28.47;;;17.60;;
4563;SDS011;2294;51.818;8.484;2022-08-19T07:29:43;30.57;;;17.60;;
4563;SDS011;2294;51.818;8.484;2022-08-19T07:32:11;26.40;;;17.60;;
4563;SDS011;2294;51.818;8.484;2022-08-19T07:34:37;28.70;;;18.90;;
4563;SDS011;2294;51.818;8.484;2022-08-19T07:37:06;32.00;;;17.83;;
4563;SDS011;2294;51.818;8.484;2022-08-19T07:39:34;23.10;;;16.70;;
4563;SDS011;2294;51.818;8.484;2022-08-19T07:42:04;26.37;;;17.03;;
4563;SDS011;2294;51.818;8.484;2022-08-19T07:44:33;25.33;;;14.40;;
4563;SDS011;2294;51.818;8.484;2022-08-19T07:47:00;28.60;;;17.70;;
4563;SDS011;2294;51.818;8.484;2022-08-19T07:49:27;22.40;;;16.90;;
4563;SDS011;2294;51.818;8.484;2022-08-19T07:51:55;29.50;;;20.07;;
4563;SDS011;2294;51.818;8.484;2022-08-19T07:54:26;29.00;;;17.90;;
4563;SDS011;2294;51.818;8.484;2022-08-19T07:56:54;25.20;;;15.60;;
4563;SDS011;2294;51.818;8.484;2022-08-19T07:59:22;24.07;;;15.50;;
4563;SDS011;2294;51.818;8.484;2022-08-19T08:01:49;26.23;;;14.07;;
4563;SDS011;2294;51.818;8.484;2022-08-19T08:04:17;30.67;;;15.90;;
4563;SDS011;2294;51.818;8.484;2022-08-19T08:07:02;22.67;;;15.20;;
4563;SDS011;2294;51.818;8.484;2022-08-19T08:09:48;20.57;;;13.87;;
4563;SDS011;2294;51.818;8.484;2022-08-19T08:12:16;19.97;;;12.70;;
4563;SDS011;2294;51.818;8.484;2022-08-19T08:14:45;17.93;;;12.37;;
4563;SDS011;2294;51.818;8.484;2022-08-19T08:17:14;17.43;;;13.17;;
4563;SDS011;2294;51.818;8.484;2022-08-19T08:19:42;16.30;;;11.73;;
4563;SDS011;2294;51.818;8.484;2022-08-19T08:22:11;17.60;;;12.30;;
4563;SDS011;2294;51.818;8.484;2022-08-19T08:25:12;16.10;;;10.70;;
4563;SDS011;2294;51.818;8.484;2022-08-19T08:27:41;16.47;;;10.63;;
4563;SDS011;2294;51.818;8.484;2022-08-19T08:30:11;19.03;;;10.50;;
4563;SDS011;2294;51.818;8.484;2022-08-19T08:32:40;20.67;;;11.23;;
4563;SDS011;2294;51.818;8.484;2022-08-19T08:35:08;17.00;;;11.13;;
4563;SDS011;2294;51.818;8.484;2022-08-19T08:37:37;18.90;;;9.20;;
4563;SDS011;2294;51.818;8.484;2022-08-19T08:40:05;13.07;;;8.80;;
4563;SDS011;2294;51.818;8.484;2022-08-19T08:42:48;15.00;;;7.60;;
4563;SDS011;2294;51.818;8.484;2022-08-19T08:45:20;10.50;;;8.37;;
4563;SDS011;2294;51.818;8.484;2022-08-19T08:47:49;12.77;;;6.93;;
4563;SDS011;2294;51.818;8.484;2022-08-19T08:50:20;13.67;;;7.90;;
4563;SDS011;2294;51.818;8.484;2022-08-19T08:52:50;10.17;;;7.17;;
4563;SDS011;2294;51.818;8.484;2022-08-19T08:55:25;23.07;;;7.73;;
4563;SDS011;2294;51.818;8.484;2022-08-19T08:57:57;13.50;;;6.57;;
4563;SDS011;2294;51.818;8.484;2022-08-19T09:00:27;10.77;;;8.20;;
4563;SDS011;2294;51.818;8.484;2022-08-19T09:02:56;11.50;;;7.77;;
4563;SDS011;2294;51.818;8.484;2022-08-19T09:05:26;19.80;;;6.93;;
4563;SDS011;2294;51.818;8.484;2022-08-19T09:08:03;9.80;;;6.53;;
4563;SDS011;2294;51.818;8.484;2022-08-19T09:10:36;9.23;;;7.17;;
4563;SDS011;2294;51.818;8.484;2022-08-19T09:13:10;19.60;;;7.53;;
4563;SDS011;2294;51.818;8.484;2022-08-19T09:15:50;11.20;;;6.57;;
4563;SDS011;2294;51.818;8.484;2022-08-19T09:18:20;10.20;;;7.00;;
4563;SDS011;2294;51.818;8.484;2022-08-19T09:20:47;12.10;;;8.03;;
4563;SDS011;2294;51.818;8.484;2022-08-19T09:23:14;8.97;;;7.67;;
4563;SDS011;2294;51.818;8.484;2022-08-19T09:25:41;10.60;;;7.33;;
4563;SDS011;2294;51.818;8.484;2022-08-19T09:28:09;9.53;;;6.60;;
4563;SDS011;2294;51.818;8.484;2022-08-19T09:30:38;12.90;;;6.70;;
4563;SDS011;2294;51.818;8.484;2022-08-19T09:33:07;12.93;;;7.80;;
4563;SDS011;2294;51.818;8.484;2022-08-19T09:35:34;8.30;;;6.30;;
4563;SDS011;2294;51.818;8.484;2022-08-19T09:38:01;12.00;;;5.90;;
4563;SDS011;2294;51.818;8.484;2022-08-19T09:40:29;14.03;;;7.00;;
4563;SDS011;2294;51.818;8.484;2022-08-19T09:42:56;6.50;;;5.13;;
4563;SDS011;2294;51.818;8.484;2022-08-19T09:45:29;7.53;;;5.30;;
4563;SDS011;2294;51.818;8.484;2022-08-19T09:47:56;6.13;;;4.87;;
4563;SDS011;2294;51.818;8.484;2022-08-19T09:50:23;7.30;;;5.27;;
4563;SDS011;2294;51.818;8.484;2022-08-19T09:52:50;10.43;;;4.97;;
4563;SDS011;2294;51.818;8.484;2022-08-19T09:55:21;7.23;;;4.63;;
4563;SDS011;2294;51.818;8.484;2022-08-19T09:57:48;8.93;;;4.30;;
4563;SDS011;2294;51.818;8.484;2022-08-19T10:00:15;7.77;;;4.20;;
4563;SDS011;2294;51.818;8.484;2022-08-19T10:02:44;9.53;;;4.80;;
4563;SDS011;2294;51.818;8.484;2022-08-19T10:05:11;6.03;;;4.67;;
4563;SDS011;2294;51.818;8.484;2022-08-19T10:07:56;6.83;;;4.30;;
4563;SDS011;2294;51.818;8.484;2022-08-19T10:10:25;11.20;;;4.40;;
4563;SDS011;2294;51.818;8.484;2022-08-19T10:12:52;6.70;;;5.70;;
4563;SDS011;2294;51.818;8.484;2022-08-19T10:15:20;7.20;;;6.07;;
4563;SDS011;2294;51.818;8.484;2022-08-19T10:17:48;12.80;;;4.73;;
4563;SDS011;2294;51.818;8.484;2022-08-19T10:20:15;5.43;;;4.30;;
4563;SDS011;2294;51.818;8.484;2022-08-19T10:22:42;7.60;;;3.80;;
4563;SDS011;2294;51.818;8.484;2022-08-19T10:25:09;5.03;;;3.40;;
4563;SDS011;2294;51.818;8.484;2022-08-19T10:27:41;8.13;;;3.77;;
4563;SDS011;2294;51.818;8.484;2022-08-19T10:30:09;6.30;;;4.30;;
4563;SDS011;2294;51.818;8.484;2022-08-19T10:32:36;7.97;;;3.73;;
4563;SDS011;2294;51.818;8.484;2022-08-19T10:35:05;5.80;;;3.10;;
4563;SDS011;2294;51.818;8.484;2022-08-19T10:37:33;7.90;;;3.27;;
4563;SDS011;2294;51.818;8.484;2022-08-19T10:40:00;7.20;;;4.03;;
4563;SDS011;2294;51.818;8.484;2022-08-19T10:42:28;5.50;;;3.80;;
4563;SDS011;2294;51.818;8.484;2022-08-19T10:44:56;6.70;;;3.57;;
4563;SDS011;2294;51.818;8.484;2022-08-19T10:47:23;11.50;;;3.23;;
4563;SDS011;2294;51.818;8.484;2022-08-19T10:49:50;9.57;;;3.30;;
4563;SDS011;2294;51.818;8.484;2022-08-19T10:52:36;5.07;;;3.70;;
4563;SDS011;2294;51.818;8.484;2022-08-19T10:55:04;8.93;;;3.33;;
4563;SDS011;2294;51.818;8.484;2022-08-19T10:57:49;6.23;;;3.00;;
4563;SDS011;2294;51.818;8.484;2022-08-19T11:00:17;3.53;;;3.23;;
4563;SDS011;2294;51.818;8.484;2022-08-19T11:02:45;7.17;;;3.33;;
4563;SDS011;2294;51.818;8.484;2022-08-19T11:05:12;4.60;;;3.00;;
4563;SDS011;2294;51.818;8.484;2022-08-19T11:07:41;4.53;;;2.93;;
4563;SDS011;2294;51.818;8.484;2022-08-19T11:10:10;3.43;;;3.13;;
4563;SDS011;2294;51.818;8.484;2022-08-19T11:12:39;3.53;;;2.73;;
4563;SDS011;2294;51.818;8.484;2022-08-19T11:15:07;7.00;;;2.77;;
4563;SDS011;2294;51.818;8.484;2022-08-19T11:17:36;5.80;;;2.80;;
4563;SDS011;2294;51.818;8.484;2022-08-19T11:20:06;5.70;;;2.80;;
4563;SDS011;2294;51.818;8.484;2022-08-19T11:22:34;4.57;;;3.33;;
4563;SDS011;2294;51.818;8.484;2022-08-19T11:25:03;9.93;;;3.37;;
4563;SDS011;2294;51.818;8.484;2022-08-19T11:27:30;5.10;;;3.07;;
4563;SDS011;2294;51.818;8.484;2022-08-19T11:29:57;12.03;;;3.13;;
4563;SDS011;2294;51.818;8.484;2022-08-19T11:32:24;3.50;;;3.07;;
4563;SDS011;2294;51.818;8.484;2022-08-19T11:34:51;14.60;;;3.37;;
4563;SDS011;2294;51.818;8.484;2022-08-19T11:37:19;4.20;;;2.87;;
4563;SDS011;2294;51.818;8.484;2022-08-19T11:39:46;6.10;;;3.53;;
4563;SDS011;2294;51.818;8.484;2022-08-19T11:42:17;6.70;;;3.57;;
4563;SDS011;2294;51.818;8.484;2022-08-19T11:45:01;7.53;;;3.10;;
4563;SDS011;2294;51.818;8.484;2022-08-19T11:47:29;6.00;;;3.00;;
4563;SDS011;2294;51.818;8.484;2022-08-19T11:49:56;3.73;;;2.70;;
4563;SDS011;2294;51.818;8.484;2022-08-19T11:52:23;6.13;;;2.90;;
4563;SDS011;2294;51.818;8.484;2022-08-19T11:54:50;3.30;;;2.63;;
4563;SDS011;2294;51.818;8.484;2022-08-19T11:57:18;4.30;;;2.87;;
4563;SDS011;2294;51.818;8.484;2022-08-19T11:59:49;7.00;;;3.30;;
4563;SDS011;2294;51.818;8.484;2022-08-19T12:02:16;4.37;;;3.43;;
4563;SDS011;2294;51.818;8.484;2022-08-19T12:04:44;5.10;;;3.17;;
4563;SDS011;2294;51.818;8.484;2022-08-19T12:07:11;3.53;;;3.20;;
4563;SDS011;2294;51.818;8.484;2022-08-19T12:09:38;4.63;;;3.40;;
4563;SDS011;2294;51.818;8.484;2022-08-19T12:12:05;6.50;;;3.43;;
4563;SDS011;2294;51.818;8.484;2022-08-19T12:14:34;4.53;;;3.40;;
4563;SDS011;2294;51.818;8.484;2022-08-19T12:17:01;7.53;;;3.60;;
4563;SDS011;2294;51.818;8.484;2022-08-19T12:19:29;3.93;;;3.53;;
4563;SDS011;2294;51.818;8.484;2022-08-19T12:21:58;4.37;;;2.87;;
4563;SDS011;2294;51.818;8.484;2022-08-19T12:24:26;6.00;;;2.93;;
4563;SDS011;2294;51.818;8.484;2022-08-19T12:26:54;3.60;;;3.00;;
4563;SDS011;2294;51.818;8.484;2022-08-19T12:29:23;5.37;;;3.53;;
4563;SDS011;2294;51.818;8.484;2022-08-19T12:31:54;4.50;;;2.60;;
4563;SDS011;2294;51.818;8.484;2022-08-19T12:34:25;7.33;;;2.30;;
4563;SDS011;2294;51.818;8.484;2022-08-19T12:36:55;5.00;;;2.50;;
4563;SDS011;2294;51.818;8.484;2022-08-19T12:39:22;4.80;;;2.40;;
4563;SDS011;2294;51.818;8.484;2022-08-19T12:41:49;6.37;;;2.80;;
4563;SDS011;2294;51.818;8.484;2022-08-19T12:44:16;3.17;;;2.87;;
4563;SDS011;2294;51.818;8.484;2022-08-19T12:46:43;4.33;;;3.03;;
4563;SDS011;2294;51.818;8.484;2022-08-19T12:49:12;4.27;;;2.70;;
4563;SDS011;2294;51.818;8.484;2022-08-19T12:51:38;5.50;;;3.30;;
4563;SDS011;2294;51.818;8.484;2022-08-19T12:54:05;4.03;;;3.50;;
4563;SDS011;2294;51.818;8.484;2022-08-19T12:56:32;2.97;;;2.60;;
4563;SDS011;2294;51.818;8.484;2022-08-19T12:59:00;7.00;;;2.63;;
4563;SDS011;2294;51.818;8.484;2022-08-19T13:01:28;5.93;;;3.07;;
4563;SDS011;2294;51.818;8.484;2022-08-19T13:03:57;4.23;;;2.60;;
4563;SDS011;2294;51.818;8.484;2022-08-19T13:06:26;3.13;;;2.83;;
4563;SDS011;2294;51.818;8.484;2022-08-19T13:08:53;2.30;;;2.00;;
4563;SDS011;2294;51.818;8.484;2022-08-19T13:11:22;8.83;;;3.00;;
4563;SDS011;2294;51.818;8.484;2022-08-19T13:13:50;5.30;;;2.87;;
4563;SDS011;2294;51.818;8.484;2022-08-19T13:16:20;4.50;;;2.90;;
4563;SDS011;2294;51.818;8.484;2022-08-19T13:18:48;4.13;;;2.87;;
4563;SDS011;2294;51.818;8.484;2022-08-19T13:21:17;5.10;;;2.87;;
4563;SDS011;2294;51.818;8.484;2022-08-19T13:23:47;5.97;;;2.70;;
4563;SDS011;2294;51.818;8.484;2022-08-19T13:26:14;8.30;;;2.63;;
4563;SDS011;2294;51.818;8.484;2022-08-19T13:28:43;3.53;;;2.90;;
4563;SDS011;2294;51.818;8.484;2022-08-19T13:31:29;2.37;;;2.13;;
4563;SDS011;2294;51.818;8.484;2022-08-19T13:34:15;3.30;;;2.10;;
4563;SDS011;2294;51.818;8.484;2022-08-19T13:36:42;4.90;;;2.23;;
4563;SDS011;2294;51.818;8.484;2022-08-19T13:39:11;4.20;;;2.90;;
4563;SDS011;2294;51.818;8.484;2022-08-19T13:41:42;2.97;;;2.20;;
4563;SDS011;2294;51.818;8.484;2022-08-19T13:44:13;2.63;;;2.10;;
4563;SDS011;2294;51.818;8.484;2022-08-19T13:46:43;3.40;;;2.10;;
4563;SDS011;2294;51.818;8.484;2022-08-19T13:49:10;2.50;;;2.20;;
4563;SDS011;2294;51.818;8.484;2022-08-19T13:51:38;2.90;;;2.30;;
4563;SDS011;2294;51.818;8.484;2022-08-19T13:54:05;3.47;;;2.60;;
4563;SDS011;2294;51.818;8.484;2022-08-19T13:56:35;3.43;;;2.47;;
4563;SDS011;2294;51.818;8.484;2022-08-19T13:59:05;3.13;;;2.40;;
4563;SDS011;2294;51.818;8.484;2022-08-19T14:01:32;4.67;;;2.80;;
4563;SDS011;2294;51.818;8.484;2022-08-19T14:04:00;4.93;;;2.50;;
4563;SDS011;2294;51.818;8.484;2022-08-19T14:06:27;2.83;;;2.13;;
4563;SDS011;2294;51.818;8.484;2022-08-19T14:08:53;4.03;;;2.57;;
4563;SDS011;2294;51.818;8.484;2022-08-19T14:11:20;2.53;;;2.33;;
4563;SDS011;2294;51.818;8.484;2022-08-19T14:13:50;3.60;;;2.60;;
4563;SDS011;2294;51.818;8.484;2022-08-19T14:16:17;4.77;;;2.60;;
4563;SDS011;2294;51.818;8.484;2022-08-19T14:18:45;3.13;;;2.40;;
4563;SDS011;2294;51.818;8.484;2022-08-19T14:21:16;7.03;;;3.30;;
4563;SDS011;2294;51.818;8.484;2022-08-19T14:23:45;3.47;;;2.90;;
4563;SDS011;2294;51.818;8.484;2022-08-19T14:26:13;4.47;;;3.00;;
4563;SDS011;2294;51.818;8.484;2022-08-19T14:28:42;5.10;;;2.67;;
4563;SDS011;2294;51.818;8.484;2022-08-19T14:31:14;3.40;;;2.80;;
4563;SDS011;2294;51.818;8.484;2022-08-19T14:33:44;4.33;;;2.87;;
4563;SDS011;2294;51.818;8.484;2022-08-19T14:36:12;3.93;;;2.60;;
4563;SDS011;2294;51.818;8.484;2022-08-19T14:38:39;9.13;;;2.50;;
4563;SDS011;2294;51.818;8.484;2022-08-19T14:41:10;4.00;;;2.90;;
4563;SDS011;2294;51.818;8.484;2022-08-19T14:43:40;2.80;;;2.40;;
4563;SDS011;2294;51.818;8.484;2022-08-19T14:46:07;9.97;;;2.93;;
4563;SDS011;2294;51.818;8.484;2022-08-19T14:48:36;3.20;;;2.47;;
4563;SDS011;2294;51.818;8.484;2022-08-19T14:51:04;6.90;;;2.60;;
4563;SDS011;2294;51.818;8.484;2022-08-19T14:53:31;4.60;;;2.93;;
4563;SDS011;2294;51.818;8.484;2022-08-19T14:56:00;4.30;;;2.83;;
4563;SDS011;2294;51.818;8.484;2022-08-19T14:58:27;5.90;;;2.67;;
4563;SDS011;2294;51.818;8.484;2022-08-19T15:00:54;3.13;;;2.43;;
4563;SDS011;2294;51.818;8.484;2022-08-19T15:03:21;6.53;;;2.80;;
4563;SDS011;2294;51.818;8.484;2022-08-19T15:05:49;2.73;;;2.17;;
4563;SDS011;2294;51.818;8.484;2022-08-19T15:08:16;4.70;;;2.67;;
4563;SDS011;2294;51.818;8.484;2022-08-19T15:10:43;2.50;;;2.30;;